sensor_id;sensor_type;location;lat;lon;timestamp;pressure;altitude;pressure_sealevel;temperature;humidity
10460;BME280;54412;51.206;6.888;2023-02-18T00:01:16;101565.19;;;12.32;83.00
10460;BME280;54412;51.206;6.888;2023-02-18T00:03:42;101563.16;;;12.39;82.97
10460;BME280;54412;51.206;6.888;2023-02-18T00:06:33;101560.03;;;12.29;83.09
10460;BME280;54412;51.206;6.888;2023-02-18T00:09:00;101568.97;;;12.47;82.47
10460;BME280;54412;51.206;6.888;2023-02-18T00:11:28;101559.13;;;12.30;83.14
10460;BME280;54412;51.206;6.888;2023-02-18T00:13:58;101561.34;;;12.39;83.03
10460;BME280;54412;51.206;6.888;2023-02-18T00:16:26;101555.41;;;12.34;83.22
10460;BME280;54412;51.206;6.888;2023-02-18T00:18:57;101556.53;;;12.29;83.41
10460;BME280;54412;51.206;6.888;2023-02-18T00:21:23;101544.19;;;12.49;82.25
10460;BME280;54412;51.206;6.888;2023-02-18T00:23:50;101542.25;;;12.33;82.95
10460;BME280;54412;51.206;6.888;2023-02-18T00:26:18;101548.66;;;12.27;83.34
10460;BME280;54412;51.206;6.888;2023-02-18T00:28:45;101539.47;;;12.36;83.10
10460;BME280;54412;51.206;6.888;2023-02-18T00:31:34;101527.41;;;12.29;83.23
10460;BME280;54412;51.206;6.888;2023-02-18T00:34:02;101524.34;;;12.19;83.79
10460;BME280;54412;51.206;6.888;2023-02-18T00:36:29;101526.59;;;12.28;83.21
10460;BME280;54412;51.206;6.888;2023-02-18T00:38:58;101518.31;;;12.16;84.03
10460;BME280;54412;51.206;6.888;2023-02-18T00:41:27;101512.75;;;12.22;84.11
10460;BME280;54412;51.206;6.888;2023-02-18T00:43:54;101512.09;;;12.17;84.60
10460;BME280;54412;51.206;6.888;2023-02-18T00:46:21;101519.78;;;12.23;84.16
10460;BME280;54412;51.206;6.888;2023-02-18T00:48:47;101515.78;;;12.13;84.34
10460;BME280;54412;51.206;6.888;2023-02-18T00:51:13;101519.44;;;12.10;84.91
10460;BME280;54412;51.206;6.888;2023-02-18T00:53:39;101511.50;;;12.30;84.30
10460;BME280;54412;51.206;6.888;2023-02-18T00:56:06;101519.50;;;12.29;84.31
10460;BME280;54412;51.206;6.888;2023-02-18T00:58:34;101512.28;;;12.32;84.14
10460;BME280;54412;51.206;6.888;2023-02-18T01:01:02;101517.78;;;12.28;83.99
10460;BME280;54412;51.206;6.888;2023-02-18T01:03:28;101507.13;;;12.29;83.93
10460;BME280;54412;51.206;6.888;2023-02-18T01:05:54;101507.34;;;12.25;84.32
10460;BME280;54412;51.206;6.888;2023-02-18T01:08:21;101503.63;;;12.09;85.18
10460;BME280;54412;51.206;6.888;2023-02-18T01:10:51;101501.31;;;12.21;84.30
10460;BME280;54412;51.206;6.888;2023-02-18T01:13:17;101494.63;;;12.13;84.99
10460;BME280;54412;51.206;6.888;2023-02-18T01:15:43;101485.81;;;12.32;84.28
10460;BME280;54412;51.206;6.888;2023-02-18T01:18:11;101490.53;;;12.06;85.04
10460;BME280;54412;51.206;6.888;2023-02-18T01:20:40;101482.41;;;12.30;84.28
10460;BME280;54412;51.206;6.888;2023-02-18T01:23:07;101490.13;;;12.15;84.75
10460;BME280;54412;51.206;6.888;2023-02-18T01:25:35;101493.84;;;12.31;84.04
10460;BME280;54412;51.206;6.888;2023-02-18T01:28:03;101489.00;;;12.20;84.45
10460;BME280;54412;51.206;6.888;2023-02-18T01:30:29;101493.50;;;12.38;83.79
10460;BME280;54412;51.206;6.888;2023-02-18T01:32:56;101490.47;;;12.27;84.17
10460;BME280;54412;51.206;6.888;2023-02-18T01:35:23;101486.75;;;12.31;84.01
10460;BME280;54412;51.206;6.888;2023-02-18T01:37:50;101483.50;;;12.45;83.08
10460;BME280;54412;51.206;6.888;2023-02-18T01:40:21;101477.97;;;12.31;83.26
10460;BME280;54412;51.206;6.888;2023-02-18T01:42:49;101474.59;;;12.07;83.98
10460;BME280;54412;51.206;6.888;2023-02-18T01:48:08;101469.13;;;12.32;83.66
10460;BME280;54412;51.206;6.888;2023-02-18T01:50:40;101467.78;;;12.22;83.51
10460;BME280;54412;51.206;6.888;2023-02-18T01:53:09;101459.25;;;12.15;83.75
10460;BME280;54412;51.206;6.888;2023-02-18T01:55:36;101467.72;;;12.23;83.58
10460;BME280;54412;51.206;6.888;2023-02-18T01:58:02;101463.91;;;12.30;83.65
10460;BME280;54412;51.206;6.888;2023-02-18T02:00:28;101462.41;;;12.23;83.88
10460;BME280;54412;51.206;6.888;2023-02-18T02:02:55;101462.09;;;12.11;84.56
10460;BME280;54412;51.206;6.888;2023-02-18T02:05:21;101458.06;;;12.22;84.29
10460;BME280;54412;51.206;6.888;2023-02-18T02:07:51;101450.53;;;11.93;85.18
10460;BME280;54412;51.206;6.888;2023-02-18T02:10:18;101442.41;;;11.98;85.45
10460;BME280;54412;51.206;6.888;2023-02-18T02:13:15;101458.28;;;11.98;85.07
10460;BME280;54412;51.206;6.888;2023-02-18T02:21:31;101441.88;;;12.10;85.70
10460;BME280;54412;51.206;6.888;2023-02-18T02:24:28;101441.63;;;12.16;85.43
10460;BME280;54412;51.206;6.888;2023-02-18T02:27:24;101437.53;;;12.09;86.27
10460;BME280;54412;51.206;6.888;2023-02-18T02:33:31;101435.53;;;11.94;86.97
10460;BME280;54412;51.206;6.888;2023-02-18T02:36:25;101425.81;;;11.94;88.84
10460;BME280;54412;51.206;6.888;2023-02-18T02:39:08;101420.97;;;11.84;89.71
10460;BME280;54412;51.206;6.888;2023-02-18T02:45:05;101417.59;;;11.80;91.02
10460;BME280;54412;51.206;6.888;2023-02-18T02:47:48;101415.25;;;11.94;90.72
10460;BME280;54412;51.206;6.888;2023-02-18T02:50:25;101419.13;;;11.86;90.43
10460;BME280;54412;51.206;6.888;2023-02-18T02:53:01;101418.53;;;11.99;91.26
10460;BME280;54412;51.206;6.888;2023-02-18T02:55:29;101410.13;;;11.90;91.04
10460;BME280;54412;51.206;6.888;2023-02-18T02:57:56;101412.59;;;11.74;91.83
10460;BME280;54412;51.206;6.888;2023-02-18T03:00:39;101405.78;;;11.69;92.72
10460;BME280;54412;51.206;6.888;2023-02-18T03:03:19;101401.16;;;11.74;93.42
10460;BME280;54412;51.206;6.888;2023-02-18T03:06:25;101398.03;;;11.84;92.23
10460;BME280;54412;51.206;6.888;2023-02-18T03:09:12;101397.78;;;11.90;91.95
10460;BME280;54412;51.206;6.888;2023-02-18T03:12:03;101394.88;;;11.96;90.95
10460;BME280;54412;51.206;6.888;2023-02-18T03:18:17;101383.22;;;12.00;90.90
10460;BME280;54412;51.206;6.888;2023-02-18T03:21:11;101379.75;;;12.00;90.24
10460;BME280;54412;51.206;6.888;2023-02-18T03:23:47;101374.59;;;11.97;90.54
10460;BME280;54412;51.206;6.888;2023-02-18T03:26:16;101385.81;;;12.02;90.39
10460;BME280;54412;51.206;6.888;2023-02-18T03:28:45;101382.06;;;11.87;90.58
10460;BME280;54412;51.206;6.888;2023-02-18T03:31:18;101380.00;;;11.94;90.68
10460;BME280;54412;51.206;6.888;2023-02-18T03:33:51;101372.00;;;11.95;90.83
10460;BME280;54412;51.206;6.888;2023-02-18T03:36:20;101370.56;;;12.08;89.79
10460;BME280;54412;51.206;6.888;2023-02-18T03:38:59;101369.69;;;11.88;91.23
10460;BME280;54412;51.206;6.888;2023-02-18T03:41:27;101363.75;;;11.83;91.99
10460;BME280;54412;51.206;6.888;2023-02-18T03:43:59;101359.00;;;11.71;92.95
10460;BME280;54412;51.206;6.888;2023-02-18T03:46:27;101366.78;;;11.74;93.05
10460;BME280;54412;51.206;6.888;2023-02-18T03:48:53;101350.94;;;11.74;93.59
10460;BME280;54412;51.206;6.888;2023-02-18T03:51:20;101362.31;;;11.76;94.16
10460;BME280;54412;51.206;6.888;2023-02-18T03:53:46;101353.66;;;11.72;94.83
10460;BME280;54412;51.206;6.888;2023-02-18T03:56:12;101345.72;;;11.72;95.12
10460;BME280;54412;51.206;6.888;2023-02-18T03:58:38;101334.91;;;11.78;94.65
10460;BME280;54412;51.206;6.888;2023-02-18T04:01:04;101325.88;;;11.82;94.17
10460;BME280;54412;51.206;6.888;2023-02-18T04:03:30;101326.59;;;11.86;94.31
10460;BME280;54412;51.206;6.888;2023-02-18T04:05:57;101332.19;;;11.80;94.78
10460;BME280;54412;51.206;6.888;2023-02-18T04:08:23;101332.84;;;11.85;94.83
10460;BME280;54412;51.206;6.888;2023-02-18T04:10:49;101330.38;;;11.80;95.67
10460;BME280;54412;51.206;6.888;2023-02-18T04:13:16;101330.13;;;11.86;95.17
10460;BME280;54412;51.206;6.888;2023-02-18T04:15:47;101320.34;;;11.88;95.46
10460;BME280;54412;51.206;6.888;2023-02-18T04:18:13;101312.56;;;12.04;94.69
10460;BME280;54412;51.206;6.888;2023-02-18T04:20:38;101311.72;;;12.03;94.43
10460;BME280;54412;51.206;6.888;2023-02-18T04:23:04;101313.78;;;11.97;94.09
10460;BME280;54412;51.206;6.888;2023-02-18T04:25:30;101316.31;;;11.80;95.25
10460;BME280;54412;51.206;6.888;2023-02-18T04:27:56;101313.88;;;11.75;95.50
10460;BME280;54412;51.206;6.888;2023-02-18T04:30:22;101314.19;;;11.88;95.61
10460;BME280;54412;51.206;6.888;2023-02-18T04:32:47;101307.19;;;11.87;95.90
10460;BME280;54412;51.206;6.888;2023-02-18T04:35:13;101320.16;;;11.73;95.54
10460;BME280;54412;51.206;6.888;2023-02-18T04:37:39;101317.84;;;11.65;96.59
10460;BME280;54412;51.206;6.888;2023-02-18T04:40:05;101307.44;;;11.60;97.51
10460;BME280;54412;51.206;6.888;2023-02-18T04:42:31;101299.06;;;11.51;97.63
10460;BME280;54412;51.206;6.888;2023-02-18T04:44:57;101299.50;;;11.60;98.09
10460;BME280;54412;51.206;6.888;2023-02-18T04:47:23;101294.44;;;11.56;97.85
10460;BME280;54412;51.206;6.888;2023-02-18T04:49:48;101289.66;;;11.64;96.98
10460;BME280;54412;51.206;6.888;2023-02-18T04:52:14;101289.50;;;11.69;97.08
10460;BME280;54412;51.206;6.888;2023-02-18T04:54:40;101302.38;;;11.56;97.33
10460;BME280;54412;51.206;6.888;2023-02-18T04:57:05;101290.06;;;11.55;97.86
10460;BME280;54412;51.206;6.888;2023-02-18T04:59:31;101303.81;;;11.63;96.97
10460;BME280;54412;51.206;6.888;2023-02-18T05:01:57;101290.44;;;11.46;97.59
10460;BME280;54412;51.206;6.888;2023-02-18T05:04:23;101297.22;;;11.53;97.64
10460;BME280;54412;51.206;6.888;2023-02-18T05:06:48;101286.69;;;11.51;97.55
10460;BME280;54412;51.206;6.888;2023-02-18T05:09:14;101287.09;;;11.63;97.24
10460;BME280;54412;51.206;6.888;2023-02-18T05:11:42;101276.38;;;11.67;96.91
10460;BME280;54412;51.206;6.888;2023-02-18T05:14:07;101281.09;;;11.59;97.43
10460;BME280;54412;51.206;6.888;2023-02-18T05:16:33;101279.00;;;11.67;96.65
10460;BME280;54412;51.206;6.888;2023-02-18T05:18:59;101280.56;;;11.51;97.40
10460;BME280;54412;51.206;6.888;2023-02-18T05:21:25;101268.19;;;11.51;96.94
10460;BME280;54412;51.206;6.888;2023-02-18T05:23:50;101284.34;;;11.45;97.78
10460;BME280;54412;51.206;6.888;2023-02-18T05:26:17;101273.88;;;11.42;97.67
10460;BME280;54412;51.206;6.888;2023-02-18T05:28:42;101262.34;;;11.45;98.03
10460;BME280;54412;51.206;6.888;2023-02-18T05:31:08;101255.22;;;11.27;98.52
10460;BME280;54412;51.206;6.888;2023-02-18T05:33:34;101241.84;;;11.30;98.50
10460;BME280;54412;51.206;6.888;2023-02-18T05:35:59;101244.25;;;11.36;99.01
10460;BME280;54412;51.206;6.888;2023-02-18T05:38:25;101232.22;;;11.29;99.12
10460;BME280;54412;51.206;6.888;2023-02-18T05:40:51;101236.66;;;11.28;98.94
10460;BME280;54412;51.206;6.888;2023-02-18T05:43:17;101234.63;;;11.15;99.74
10460;BME280;54412;51.206;6.888;2023-02-18T05:45:42;101232.22;;;11.29;98.98
10460;BME280;54412;51.206;6.888;2023-02-18T05:48:08;101224.81;;;11.37;97.75
10460;BME280;54412;51.206;6.888;2023-02-18T05:50:34;101229.59;;;11.49;97.62
10460;BME280;54412;51.206;6.888;2023-02-18T05:53:00;101231.13;;;11.34;97.29
10460;BME280;54412;51.206;6.888;2023-02-18T05:55:26;101225.03;;;11.32;98.50
10460;BME280;54412;51.206;6.888;2023-02-18T05:57:52;101226.88;;;11.30;98.46
10460;BME280;54412;51.206;6.888;2023-02-18T06:00:18;101215.66;;;11.25;98.37
10460;BME280;54412;51.206;6.888;2023-02-18T06:02:44;101216.72;;;11.21;99.12
10460;BME280;54412;51.206;6.888;2023-02-18T06:05:10;101211.50;;;11.20;100.00
10460;BME280;54412;51.206;6.888;2023-02-18T06:07:36;101214.63;;;11.29;99.60
10460;BME280;54412;51.206;6.888;2023-02-18T06:10:03;101222.72;;;11.25;98.57
10460;BME280;54412;51.206;6.888;2023-02-18T06:12:29;101216.19;;;11.33;98.89
10460;BME280;54412;51.206;6.888;2023-02-18T06:14:55;101216.97;;;11.35;97.80
10460;BME280;54412;51.206;6.888;2023-02-18T06:17:20;101202.22;;;11.31;98.18
10460;BME280;54412;51.206;6.888;2023-02-18T06:19:47;101211.19;;;11.27;97.57
10460;BME280;54412;51.206;6.888;2023-02-18T06:22:13;101216.56;;;11.44;97.58
10460;BME280;54412;51.206;6.888;2023-02-18T06:24:39;101219.94;;;11.48;96.90
10460;BME280;54412;51.206;6.888;2023-02-18T06:27:06;101216.78;;;11.40;96.80
10460;BME280;54412;51.206;6.888;2023-02-18T06:29:32;101218.59;;;11.58;96.89
10460;BME280;54412;51.206;6.888;2023-02-18T06:31:58;101216.44;;;11.47;95.78
10460;BME280;54412;51.206;6.888;2023-02-18T06:34:25;101212.06;;;11.46;95.03
10460;BME280;54412;51.206;6.888;2023-02-18T06:36:51;101216.75;;;11.60;95.22
10460;BME280;54412;51.206;6.888;2023-02-18T06:39:17;101214.50;;;11.71;93.19
10460;BME280;54412;51.206;6.888;2023-02-18T06:41:43;101224.00;;;11.55;93.90
10460;BME280;54412;51.206;6.888;2023-02-18T06:44:09;101215.34;;;11.33;93.87
10460;BME280;54412;51.206;6.888;2023-02-18T06:46:36;101210.50;;;11.42;94.06
10460;BME280;54412;51.206;6.888;2023-02-18T06:49:02;101210.38;;;11.66;92.86
10460;BME280;54412;51.206;6.888;2023-02-18T06:51:28;101202.38;;;11.47;92.28
10460;BME280;54412;51.206;6.888;2023-02-18T06:53:54;101208.94;;;11.57;92.12
10460;BME280;54412;51.206;6.888;2023-02-18T06:56:20;101224.88;;;11.55;91.63
10460;BME280;54412;51.206;6.888;2023-02-18T06:58:45;101215.72;;;11.44;91.88
10460;BME280;54412;51.206;6.888;2023-02-18T07:01:11;101216.03;;;11.56;91.68
10460;BME280;54412;51.206;6.888;2023-02-18T07:03:37;101219.84;;;11.49;91.43
10460;BME280;54412;51.206;6.888;2023-02-18T07:06:03;101220.78;;;11.48;90.75
10460;BME280;54412;51.206;6.888;2023-02-18T07:08:28;101227.22;;;11.43;90.63
10460;BME280;54412;51.206;6.888;2023-02-18T07:10:55;101219.53;;;11.37;91.32
10460;BME280;54412;51.206;6.888;2023-02-18T07:13:21;101227.28;;;11.41;90.74
10460;BME280;54412;51.206;6.888;2023-02-18T07:15:46;101215.06;;;11.39;90.26
10460;BME280;54412;51.206;6.888;2023-02-18T07:18:12;101217.16;;;11.51;89.80
10460;BME280;54412;51.206;6.888;2023-02-18T07:20:38;101227.59;;;11.54;89.09
10460;BME280;54412;51.206;6.888;2023-02-18T07:23:03;101230.47;;;11.29;88.86
10460;BME280;54412;51.206;6.888;2023-02-18T07:25:29;101226.94;;;11.49;89.00
10460;BME280;54412;51.206;6.888;2023-02-18T07:27:55;101226.94;;;11.49;88.72
10460;BME280;54412;51.206;6.888;2023-02-18T07:30:20;101213.81;;;11.47;87.29
10460;BME280;54412;51.206;6.888;2023-02-18T07:32:46;101219.44;;;11.40;87.63
10460;BME280;54412;51.206;6.888;2023-02-18T07:35:14;101224.53;;;11.63;87.27
10460;BME280;54412;51.206;6.888;2023-02-18T07:37:47;101220.72;;;11.70;86.97
10460;BME280;54412;51.206;6.888;2023-02-18T07:40:19;101221.91;;;11.43;86.69
10460;BME280;54412;51.206;6.888;2023-02-18T07:42:46;101230.72;;;11.43;86.69
10460;BME280;54412;51.206;6.888;2023-02-18T07:45:12;101236.19;;;11.39;87.97
10460;BME280;54412;51.206;6.888;2023-02-18T07:47:38;101235.91;;;11.45;87.51
10460;BME280;54412;51.206;6.888;2023-02-18T07:50:05;101232.88;;;11.34;88.17
10460;BME280;54412;51.206;6.888;2023-02-18T07:52:31;101241.28;;;11.43;88.11
10460;BME280;54412;51.206;6.888;2023-02-18T07:54:57;101245.31;;;11.72;87.18
10460;BME280;54412;51.206;6.888;2023-02-18T07:57:22;101250.38;;;11.56;85.91
10460;BME280;54412;51.206;6.888;2023-02-18T07:59:48;101261.47;;;11.44;84.53
10460;BME280;54412;51.206;6.888;2023-02-18T08:02:20;101261.34;;;11.47;84.17
10460;BME280;54412;51.206;6.888;2023-02-18T08:04:47;101260.69;;;11.42;84.14
10460;BME280;54412;51.206;6.888;2023-02-18T08:07:18;101272.09;;;11.43;84.57
10460;BME280;54412;51.206;6.888;2023-02-18T08:09:44;101265.69;;;11.48;84.36
10460;BME280;54412;51.206;6.888;2023-02-18T08:12:10;101256.66;;;11.34;83.79
10460;BME280;54412;51.206;6.888;2023-02-18T08:14:36;101262.19;;;11.48;83.33
10460;BME280;54412;51.206;6.888;2023-02-18T08:17:02;101268.66;;;11.41;83.37
10460;BME280;54412;51.206;6.888;2023-02-18T08:19:27;101292.19;;;11.27;84.36
10460;BME280;54412;51.206;6.888;2023-02-18T08:21:53;101278.09;;;11.26;84.99
10460;BME280;54412;51.206;6.888;2023-02-18T08:24:19;101283.38;;;11.26;85.86
10460;BME280;54412;51.206;6.888;2023-02-18T08:26:44;101289.03;;;11.19;87.19
10460;BME280;54412;51.206;6.888;2023-02-18T08:29:10;101297.50;;;11.05;86.91
10460;BME280;54412;51.206;6.888;2023-02-18T08:31:36;101297.91;;;11.16;86.37
10460;BME280;54412;51.206;6.888;2023-02-18T08:34:01;101298.47;;;11.03;86.90
10460;BME280;54412;51.206;6.888;2023-02-18T08:36:29;101291.56;;;11.00;86.99
10460;BME280;54412;51.206;6.888;2023-02-18T08:38:56;101294.78;;;11.07;86.95
10460;BME280;54412;51.206;6.888;2023-02-18T08:41:22;101303.38;;;11.12;86.52
10460;BME280;54412;51.206;6.888;2023-02-18T08:43:48;101286.63;;;11.13;86.91
10460;BME280;54412;51.206;6.888;2023-02-18T08:46:15;101289.50;;;11.07;87.33
10460;BME280;54412;51.206;6.888;2023-02-18T08:48:41;101296.00;;;11.20;86.69
10460;BME280;54412;51.206;6.888;2023-02-18T08:51:19;101278.44;;;10.99;87.64
10460;BME280;54412;51.206;6.888;2023-02-18T08:53:46;101301.25;;;10.78;86.96
10460;BME280;54412;51.206;6.888;2023-02-18T08:56:14;101292.78;;;10.92;86.60
10460;BME280;54412;51.206;6.888;2023-02-18T08:58:41;101282.53;;;11.06;86.88
10460;BME280;54412;51.206;6.888;2023-02-18T09:01:10;101282.22;;;11.13;85.93
10460;BME280;54412;51.206;6.888;2023-02-18T09:03:36;101274.63;;;11.26;84.54
10460;BME280;54412;51.206;6.888;2023-02-18T09:06:03;101278.84;;;11.30;83.83
10460;BME280;54412;51.206;6.888;2023-02-18T09:08:29;101278.50;;;11.17;82.29
10460;BME280;54412;51.206;6.888;2023-02-18T09:11:00;101268.94;;;11.15;83.18
10460;BME280;54412;51.206;6.888;2023-02-18T09:13:29;101272.75;;;11.08;82.91
10460;BME280;54412;51.206;6.888;2023-02-18T09:16:16;101272.75;;;11.08;82.12
10460;BME280;54412;51.206;6.888;2023-02-18T09:18:44;101270.72;;;11.14;81.09
10460;BME280;54412;51.206;6.888;2023-02-18T09:21:12;101271.78;;;11.30;83.40
10460;BME280;54412;51.206;6.888;2023-02-18T09:23:39;101266.88;;;11.21;81.03
10460;BME280;54412;51.206;6.888;2023-02-18T09:26:08;101261.13;;;11.32;79.95
10460;BME280;54412;51.206;6.888;2023-02-18T09:28:35;101272.22;;;11.20;80.31
10460;BME280;54412;51.206;6.888;2023-02-18T09:31:11;101264.50;;;11.35;80.37
10460;BME280;54412;51.206;6.888;2023-02-18T09:33:41;101277.63;;;11.37;79.74
10460;BME280;54412;51.206;6.888;2023-02-18T09:36:07;101269.06;;;11.32;79.71
10460;BME280;54412;51.206;6.888;2023-02-18T09:38:33;101261.78;;;11.37;79.86
10460;BME280;54412;51.206;6.888;2023-02-18T09:41:03;101254.94;;;11.33;79.36
10460;BME280;54412;51.206;6.888;2023-02-18T09:43:41;101251.78;;;11.25;79.33
10460;BME280;54412;51.206;6.888;2023-02-18T09:46:30;101263.72;;;11.33;79.17
10460;BME280;54412;51.206;6.888;2023-02-18T09:49:01;101259.97;;;11.19;79.84
10460;BME280;54412;51.206;6.888;2023-02-18T09:51:28;101255.78;;;11.33;79.20
10460;BME280;54412;51.206;6.888;2023-02-18T09:53:54;101253.03;;;11.36;78.96
10460;BME280;54412;51.206;6.888;2023-02-18T09:56:29;101258.19;;;11.39;78.37
10460;BME280;54412;51.206;6.888;2023-02-18T09:58:58;101252.81;;;11.41;78.68
10460;BME280;54412;51.206;6.888;2023-02-18T10:01:33;101248.41;;;11.41;77.89
10460;BME280;54412;51.206;6.888;2023-02-18T10:04:18;101246.41;;;11.26;78.09
10460;BME280;54412;51.206;6.888;2023-02-18T10:06:47;101234.63;;;11.15;78.73
10460;BME280;54412;51.206;6.888;2023-02-18T10:09:22;101231.75;;;11.39;77.79
10460;BME280;54412;51.206;6.888;2023-02-18T10:11:55;101227.81;;;11.29;78.56
10460;BME280;54412;51.206;6.888;2023-02-18T10:14:22;101242.16;;;11.24;78.04
10460;BME280;54412;51.206;6.888;2023-02-18T10:16:50;101229.53;;;11.30;77.76
10460;BME280;54412;51.206;6.888;2023-02-18T10:19:36;101230.50;;;11.28;78.01
10460;BME280;54412;51.206;6.888;2023-02-18T10:22:06;101235.03;;;11.26;78.16
10460;BME280;54412;51.206;6.888;2023-02-18T10:24:37;101225.91;;;11.33;78.65
10460;BME280;54412;51.206;6.888;2023-02-18T10:27:07;101231.03;;;11.16;78.33
10460;BME280;54412;51.206;6.888;2023-02-18T10:29:34;101230.97;;;11.37;77.78
10460;BME280;54412;51.206;6.888;2023-02-18T10:40:41;101256.16;;;11.26;79.84
10460;BME280;54412;51.206;6.888;2023-02-18T10:51:33;101270.72;;;11.34;83.62
10460;BME280;54412;51.206;6.888;2023-02-18T10:54:00;101275.91;;;11.16;83.79
10460;BME280;54412;51.206;6.888;2023-02-18T11:02:01;101268.53;;;11.04;85.46
10460;BME280;54412;51.206;6.888;2023-02-18T11:04:36;101264.59;;;10.92;86.22
10460;BME280;54412;51.206;6.888;2023-02-18T11:07:12;101269.19;;;11.09;86.61
10460;BME280;54412;51.206;6.888;2023-02-18T11:09:54;101272.38;;;11.17;87.21
10460;BME280;54412;51.206;6.888;2023-02-18T11:12:46;101273.09;;;11.20;87.30
10460;BME280;54412;51.206;6.888;2023-02-18T11:17:38;101273.88;;;11.02;89.45
10460;BME280;54412;51.206;6.888;2023-02-18T11:25:38;101279.09;;;11.04;90.30
10460;BME280;54412;51.206;6.888;2023-02-18T11:30:55;101278.06;;;11.06;90.81
10460;BME280;54412;51.206;6.888;2023-02-18T11:33:35;101288.06;;;11.20;90.05
10460;BME280;54412;51.206;6.888;2023-02-18T11:41:46;101271.69;;;10.70;92.22
10460;BME280;54412;51.206;6.888;2023-02-18T11:44:34;101272.72;;;10.88;91.87
10460;BME280;54412;51.206;6.888;2023-02-18T11:49:42;101262.31;;;10.63;93.56
10460;BME280;54412;51.206;6.888;2023-02-18T11:52:39;101262.59;;;10.99;93.39
10460;BME280;54412;51.206;6.888;2023-02-18T11:55:07;101280.72;;;11.06;92.83
10460;BME280;54412;51.206;6.888;2023-02-18T11:57:44;101278.31;;;10.80;92.95
10460;BME280;54412;51.206;6.888;2023-02-18T12:03:01;101274.44;;;10.89;93.32
10460;BME280;54412;51.206;6.888;2023-02-18T12:05:29;101264.97;;;10.83;94.23
10460;BME280;54412;51.206;6.888;2023-02-18T12:08:13;101268.09;;;10.93;93.78
10460;BME280;54412;51.206;6.888;2023-02-18T12:10:58;101253.59;;;10.83;94.84
10460;BME280;54412;51.206;6.888;2023-02-18T12:13:33;101271.53;;;10.95;94.64
10460;BME280;54412;51.206;6.888;2023-02-18T12:16:24;101275.06;;;10.74;95.53
10460;BME280;54412;51.206;6.888;2023-02-18T12:25:24;101269.56;;;11.00;95.09
10460;BME280;54412;51.206;6.888;2023-02-18T12:31:05;101260.69;;;11.02;94.83
10460;BME280;54412;51.206;6.888;2023-02-18T12:39:22;101252.63;;;11.05;95.26
10460;BME280;54412;51.206;6.888;2023-02-18T12:53:48;101251.19;;;11.18;94.72
10460;BME280;54412;51.206;6.888;2023-02-18T13:02:36;101253.94;;;10.95;96.02
10460;BME280;54412;51.206;6.888;2023-02-18T13:13:41;101249.34;;;10.79;98.05
10460;BME280;54412;51.206;6.888;2023-02-18T13:16:16;101256.50;;;10.97;96.91
10460;BME280;54412;51.206;6.888;2023-02-18T13:21:38;101250.78;;;11.27;96.50
10460;BME280;54412;51.206;6.888;2023-02-18T13:24:19;101243.34;;;11.17;95.88
10460;BME280;54412;51.206;6.888;2023-02-18T13:26:55;101257.50;;;11.14;95.71
10460;BME280;54412;51.206;6.888;2023-02-18T13:29:35;101254.78;;;10.96;97.20
10460;BME280;54412;51.206;6.888;2023-02-18T13:35:34;101253.59;;;11.23;95.52
10460;BME280;54412;51.206;6.888;2023-02-18T13:38:25;101252.69;;;11.04;95.75
10460;BME280;54412;51.206;6.888;2023-02-18T13:40:57;101240.00;;;10.92;97.97
10460;BME280;54412;51.206;6.888;2023-02-18T13:46:13;101243.75;;;11.06;96.62
10460;BME280;54412;51.206;6.888;2023-02-18T13:48:49;101245.00;;;10.98;97.42
10460;BME280;54412;51.206;6.888;2023-02-18T13:51:28;101246.59;;;11.02;97.33
10460;BME280;54412;51.206;6.888;2023-02-18T13:56:32;101245.19;;;11.15;96.68
10460;BME280;54412;51.206;6.888;2023-02-18T14:10:28;101237.13;;;11.18;96.04
10460;BME280;54412;51.206;6.888;2023-02-18T14:28:55;101233.50;;;11.20;96.83
10460;BME280;54412;51.206;6.888;2023-02-18T14:31:34;101241.66;;;11.14;97.45
10460;BME280;54412;51.206;6.888;2023-02-18T14:38:04;101232.69;;;11.18;97.50
10460;BME280;54412;51.206;6.888;2023-02-18T14:46:43;101232.94;;;11.12;98.37
10460;BME280;54412;51.206;6.888;2023-02-18T14:51:58;101231.59;;;11.24;98.14
10460;BME280;54412;51.206;6.888;2023-02-18T14:54:26;101227.66;;;11.12;97.83
10460;BME280;54412;51.206;6.888;2023-02-18T14:57:06;101230.72;;;11.23;97.77
10460;BME280;54412;51.206;6.888;2023-02-18T14:59:38;101228.16;;;11.22;98.16
10460;BME280;54412;51.206;6.888;2023-02-18T15:02:19;101222.56;;;11.28;97.63
10460;BME280;54412;51.206;6.888;2023-02-18T15:04:46;101234.00;;;11.48;96.41
10460;BME280;54412;51.206;6.888;2023-02-18T15:07:12;101227.53;;;11.35;96.50
10460;BME280;54412;51.206;6.888;2023-02-18T15:09:47;101228.41;;;11.36;96.68
10460;BME280;54412;51.206;6.888;2023-02-18T15:12:21;101222.19;;;11.37;96.42
10460;BME280;54412;51.206;6.888;2023-02-18T15:14:51;101231.66;;;11.22;97.63
10460;BME280;54412;51.206;6.888;2023-02-18T15:17:22;101231.13;;;11.34;97.32
10460;BME280;54412;51.206;6.888;2023-02-18T15:19:56;101223.44;;;11.48;96.24
10460;BME280;54412;51.206;6.888;2023-02-18T15:22:26;101230.78;;;11.22;97.06
10460;BME280;54412;51.206;6.888;2023-02-18T15:24:56;101226.16;;;11.27;97.94
10460;BME280;54412;51.206;6.888;2023-02-18T15:27:45;101229.34;;;11.35;96.98
10460;BME280;54412;51.206;6.888;2023-02-18T15:30:27;101220.28;;;11.20;98.50
10460;BME280;54412;51.206;6.888;2023-02-18T15:33:00;101228.53;;;11.33;98.24
10460;BME280;54412;51.206;6.888;2023-02-18T15:35:30;101241.59;;;11.36;98.44
10460;BME280;54412;51.206;6.888;2023-02-18T15:37:59;101232.50;;;11.23;97.42
10460;BME280;54412;51.206;6.888;2023-02-18T15:40:36;101233.94;;;11.30;97.66
10460;BME280;54412;51.206;6.888;2023-02-18T15:43:05;101241.19;;;11.05;98.97